Time;durP1;ratioP1;P1;durP2;ratioP2;P2;SDS_P1;SDS_P2;PMS_P1;PMS_P2;Temp;Humidity;BMP_temperature;BMP_pressure;BME280_temperature;BME280_humidity;BME280_pressure;Samples;Min_cycle;Max_cycle;Signal;HPM_P1;HPM_P2
2022/10/21 00:00:18;;;;;;;0.00;0.00;;;12.20;99.90;;;;;;5064041;28;20052;-85
2022/10/21 00:02:45;;;;;;;0.00;0.00;;;12.20;99.90;;;;;;5069799;28;20032;-86
2022/10/21 00:05:12;;;;;;;0.00;0.00;;;;;;;;;;5070999;28;20044;-84
2022/10/21 00:07:39;;;;;;;0.00;0.00;;;12.30;99.90;;;;;;5067838;28;20111;-84
2022/10/21 00:10:09;;;;;;;0.00;0.00;;;12.30;99.90;;;;;;5071914;28;20040;-87
2022/10/21 00:12:36;;;;;;;0.08;0.08;;;12.30;99.90;;;;;;5068738;28;20055;-85
2022/10/21 00:15:05;;;;;;;0.00;0.00;;;12.40;99.90;;;;;;5068416;28;20488;-85
2022/10/21 00:17:34;;;;;;;0.00;0.00;;;12.50;99.90;;;;;;5072403;28;20040;-86
2022/10/21 00:20:02;;;;;;;0.00;0.00;;;12.50;99.90;;;;;;5069143;28;20097;-85
2022/10/21 00:22:29;;;;;;;0.00;0.00;;;;;;;;;;5071659;28;20498;-86
2022/10/21 00:24:56;;;;;;;0.00;0.00;;;12.50;99.90;;;;;;5068619;28;20044;-85
2022/10/21 00:27:24;;;;;;;0.00;0.00;;;12.50;99.90;;;;;;5081535;28;20144;-86
2022/10/21 00:29:51;;;;;;;0.00;0.00;;;;;;;;;;5071923;28;20056;-85
2022/10/21 00:32:19;;;;;;;0.00;0.00;;;;;;;;;;5070332;28;20037;-86
2022/10/21 00:34:46;;;;;;;0.00;0.00;;;12.50;99.90;;;;;;5068924;28;20500;-85
2022/10/21 00:37:13;;;;;;;0.00;0.00;;;12.50;99.90;;;;;;5069684;28;20044;-86
2022/10/21 00:39:40;;;;;;;0.00;0.00;;;13.80;99.90;;;;;;5062717;28;20415;-84
2022/10/21 00:42:14;;;;;;;0.00;0.00;;;12.60;99.90;;;;;;5071449;28;20124;-85
2022/10/21 00:44:43;;;;;;;0.00;0.00;;;12.70;99.90;;;;;;5070242;28;20044;-85
2022/10/21 00:47:14;;;;;;;0.00;0.00;;;12.80;99.90;;;;;;5068263;28;20083;-86
2022/10/21 00:49:43;;;;;;;0.00;0.00;;;13.50;99.90;;;;;;5062417;28;20132;-86
2022/10/21 00:52:13;;;;;;;0.00;0.00;;;12.80;99.90;;;;;;5070817;28;20040;-86
2022/10/21 00:54:42;;;;;;;0.00;0.00;;;12.80;99.90;;;;;;5070012;28;20052;-84
2022/10/21 00:57:10;;;;;;;0.00;0.00;;;12.80;99.90;;;;;;5065877;28;20136;-85
2022/10/21 00:59:43;;;;;;;0.00;0.00;;;12.80;99.90;;;;;;5064392;28;20047;-86
2022/10/21 01:02:11;;;;;;;0.00;0.00;;;12.80;99.90;;;;;;5068957;28;20037;-86
2022/10/21 01:04:38;;;;;;;0.00;0.00;;;12.80;99.90;;;;;;5064544;28;21232;-85
2022/10/21 01:07:05;;;;;;;0.00;0.00;;;12.70;99.90;;;;;;5065583;28;20116;-87
2022/10/21 01:09:31;;;;;;;0.00;0.00;;;12.70;99.90;;;;;;5071624;28;20067;-86
2022/10/21 01:12:01;;;;;;;0.00;0.00;;;12.70;99.90;;;;;;5067888;28;20041;-86
2022/10/21 01:14:40;;;;;;;0.00;0.00;;;12.70;99.90;;;;;;5050352;28;20084;-86
2022/10/21 01:17:19;;;;;;;0.00;0.00;;;12.70;99.90;;;;;;5067094;28;20555;-85
2022/10/21 01:20:30;;;;;;;0.00;0.00;;;13.30;99.90;;;;;;5060501;28;20311;-85
2022/10/21 01:23:38;;;;;;;0.00;0.00;;;12.70;99.90;;;;;;5069140;28;20033;-86
2022/10/21 01:26:31;;;;;;;0.00;0.00;;;12.70;99.90;;;;;;5066216;28;20114;-85
2022/10/21 01:29:24;;;;;;;0.00;0.00;;;12.80;99.90;;;;;;5066951;28;20403;-85
2022/10/21 01:31:57;;;;;;;0.00;0.00;;;12.80;99.90;;;;;;5066495;28;20045;-86
2022/10/21 01:34:29;;;;;;;0.00;0.00;;;12.80;99.90;;;;;;5068701;28;20044;-86
2022/10/21 01:37:00;;;;;;;0.00;0.00;;;12.90;99.90;;;;;;5065825;28;20488;-85
2022/10/21 01:39:35;;;;;;;0.00;0.00;;;12.90;99.90;;;;;;5067549;28;20076;-85
2022/10/21 01:42:07;;;;;;;0.00;0.00;;;13.00;99.90;;;;;;5065382;28;20036;-85
2022/10/21 01:44:41;;;;;;;0.00;0.00;;;12.90;99.90;;;;;;5064089;28;20044;-84
2022/10/21 01:47:16;;;;;;;0.00;0.00;;;12.90;99.90;;;;;;5068430;28;20106;-85
2022/10/21 01:49:47;;;;;;;0.00;0.00;;;12.90;99.90;;;;;;5067420;28;20431;-86
2022/10/21 01:52:15;;;;;;;0.00;0.00;;;12.90;99.90;;;;;;5069565;28;20037;-86
2022/10/21 01:54:46;;;;;;;0.00;0.00;;;13.00;99.90;;;;;;5067527;28;20131;-85
2022/10/21 01:57:15;;;;;;;0.00;0.00;;;13.00;99.90;;;;;;5067639;28;20087;-86
2022/10/21 01:59:44;;;;;;;0.00;0.00;;;13.00;99.90;;;;;;5070960;28;20506;-84
2022/10/21 02:02:14;;;;;;;0.00;0.00;;;13.00;99.90;;;;;;5067953;28;20041;-86
2022/10/21 02:04:44;;;;;;;0.00;0.00;;;13.10;99.90;;;;;;5067415;28;20123;-86
2022/10/21 02:07:11;;;;;;;0.00;0.00;;;;;;;;;;5068419;28;20083;-86
2022/10/21 02:09:38;;;;;;;0.00;0.00;;;13.00;99.90;;;;;;5083474;28;20055;-86
2022/10/21 02:12:06;;;;;;;0.00;0.00;;;13.00;99.90;;;;;;5069357;28;20532;-86
2022/10/21 02:14:37;;;;;;;0.00;0.00;;;13.00;99.90;;;;;;5069909;28;20087;-86
2022/10/21 02:17:06;;;;;;;0.00;0.00;;;13.00;99.90;;;;;;5099384;22;20088;-84
2022/10/21 02:19:34;;;;;;;0.00;0.00;;;14.20;99.90;;;;;;5068503;28;20036;-84
2022/10/21 02:22:03;;;;;;;0.00;0.00;;;13.00;99.90;;;;;;5068763;28;20025;-85
2022/10/21 02:24:37;;;;;;;0.00;0.00;;;13.00;99.90;;;;;;5065429;28;20040;-82
2022/10/21 02:27:04;;;;;;;0.00;0.00;;;13.00;99.90;;;;;;5069348;28;20037;-87
2022/10/21 02:29:36;;;;;;;0.00;0.00;;;13.40;99.90;;;;;;5064501;28;20026;-84
2022/10/21 02:32:15;;;;;;;0.00;0.00;;;15.00;99.90;;;;;;5073011;28;20032;-87
2022/10/21 02:34:59;;;;;;;0.00;0.00;;;14.50;99.90;;;;;;5062843;28;20025;-86
2022/10/21 02:37:31;;;;;;;0.00;0.00;;;13.00;99.90;;;;;;5068967;28;20039;-86
2022/10/21 02:40:06;;;;;;;0.00;0.00;;;13.10;99.90;;;;;;5082621;28;20058;-84
2022/10/21 02:42:38;;;;;;;0.00;0.00;;;13.10;99.90;;;;;;5069811;28;20047;-84
2022/10/21 02:45:08;;;;;;;0.00;0.00;;;13.30;99.90;;;;;;5066112;28;20033;-83
2022/10/21 02:47:35;;;;;;;0.00;0.00;;;13.20;99.90;;;;;;5071122;28;20033;-80
2022/10/21 02:50:05;;;;;;;0.00;0.00;;;13.20;99.90;;;;;;5073158;28;20119;-84
2022/10/21 02:52:31;;;;;;;0.00;0.00;;;13.20;99.90;;;;;;5073531;28;20024;-84
2022/10/21 02:54:58;;;;;;;0.00;0.00;;;13.20;99.90;;;;;;5069244;28;20051;-83
2022/10/21 02:57:25;;;;;;;0.00;0.00;;;;;;;;;;5071880;28;20037;-87
2022/10/21 02:59:53;;;;;;;0.00;0.00;;;;;;;;;;5074132;28;20087;-83
2022/10/21 03:02:20;;;;;;;0.00;0.00;;;;;;;;;;5071616;28;20032;-85
2022/10/21 03:04:47;;;;;;;0.00;0.00;;;13.30;99.90;;;;;;5076238;28;20068;-84
2022/10/21 03:07:15;;;;;;;0.00;0.00;;;13.40;99.90;;;;;;5072987;28;20034;-85
2022/10/21 03:09:42;;;;;;;0.00;0.00;;;14.10;99.90;;;;;;5071703;28;20049;-83
2022/10/21 03:12:09;;;;;;;0.00;0.00;;;13.40;99.90;;;;;;5070066;28;20041;-87
2022/10/21 03:14:36;;;;;;;0.00;0.00;;;13.40;99.90;;;;;;5074702;28;20025;-84
2022/10/21 03:17:02;;;;;;;0.00;0.00;;;13.40;99.90;;;;;;5072435;28;20037;-85
2022/10/21 03:19:29;;;;;;;0.00;0.00;;;13.50;99.90;;;;;;5075483;28;20045;-86
2022/10/21 03:21:56;;;;;;;0.00;0.00;;;13.50;99.90;;;;;;5072708;28;20047;-84
2022/10/21 03:24:24;;;;;;;0.00;0.00;;;13.50;99.90;;;;;;5070710;28;20025;-85
2022/10/21 03:26:55;;;;;;;0.00;0.00;;;13.60;99.90;;;;;;5073781;28;20051;-85
2022/10/21 03:29:22;;;;;;;0.00;0.00;;;13.80;99.90;;;;;;5071651;28;20025;-87
2022/10/21 03:31:49;;;;;;;0.00;0.00;;;13.50;99.90;;;;;;5072660;28;20084;-84
2022/10/21 03:34:16;;;;;;;0.00;0.00;;;13.50;99.90;;;;;;5076700;28;20040;-86
2022/10/21 03:36:43;;;;;;;0.00;0.00;;;;;;;;;;5073180;28;20052;-85
2022/10/21 03:39:10;;;;;;;0.00;0.00;;;;;;;;;;5070560;28;20045;-86
2022/10/21 03:41:39;;;;;;;0.10;0.10;;;13.60;99.90;;;;;;5063848;28;20048;-85
2022/10/21 03:44:06;;;;;;;0.00;0.00;;;13.50;99.90;;;;;;5066779;28;20048;-85
2022/10/21 03:46:33;;;;;;;0.00;0.00;;;;;;;;;;5065735;28;20064;-84
2022/10/21 03:49:00;;;;;;;0.00;0.00;;;;;;;;;;5070191;28;20048;-85
2022/10/21 03:51:31;;;;;;;0.00;0.00;;;13.50;99.90;;;;;;5071827;28;20032;-84
2022/10/21 03:53:58;;;;;;;0.00;0.00;;;;;;;;;;5070992;28;20045;-84
2022/10/21 03:56:26;;;;;;;0.00;0.00;;;;;;;;;;5068175;28;20072;-84
2022/10/21 03:58:54;;;;;;;0.00;0.00;;;13.50;99.90;;;;;;5070062;28;20037;-85
2022/10/21 04:01:25;;;;;;;0.00;0.00;;;;;;;;;;5067516;28;20045;-85
2022/10/21 04:03:52;;;;;;;0.00;0.00;;;;;;;;;;5067985;28;20051;-87
2022/10/21 04:06:19;;;;;;;0.00;0.00;;;13.50;99.90;;;;;;5082210;28;20064;-86
2022/10/21 04:08:46;;;;;;;0.00;0.00;;;13.50;99.90;;;;;;5067646;28;20044;-85
2022/10/21 04:11:13;;;;;;;0.00;0.00;;;;;;;;;;5064370;28;20025;-87
2022/10/21 04:13:40;;;;;;;0.00;0.00;;;13.40;99.90;;;;;;5068291;28;20033;-83
2022/10/21 04:16:14;;;;;;;0.00;0.00;;;13.50;99.90;;;;;;5069021;28;20060;-86
2022/10/21 04:18:41;;;;;;;0.00;0.00;;;;;;;;;;5067087;28;20048;-83
2022/10/21 04:21:08;;;;;;;0.00;0.00;;;13.50;99.90;;;;;;5067394;28;20064;-85
2022/10/21 04:23:35;;;;;;;0.00;0.00;;;14.10;99.90;;;;;;5065257;28;20029;-82
2022/10/21 04:26:04;;;;;;;0.00;0.00;;;13.80;99.90;;;;;;5068250;28;20059;-86
2022/10/21 04:28:31;;;;;;;0.00;0.00;;;13.40;99.90;;;;;;5068766;28;20033;-85
2022/10/21 04:30:58;;;;;;;0.00;0.00;;;13.40;99.90;;;;;;5064627;28;20037;-83
2022/10/21 04:33:26;;;;;;;0.00;0.00;;;13.30;99.90;;;;;;5065919;28;20033;-82
2022/10/21 04:35:54;;;;;;;0.00;0.00;;;;;;;;;;5067022;28;20045;-86
2022/10/21 04:38:21;;;;;;;0.00;0.00;;;13.30;99.90;;;;;;5084676;28;20056;-85
2022/10/21 04:40:54;;;;;;;0.00;0.00;;;14.30;99.90;;;;;;5073976;28;20070;-85
2022/10/21 04:43:21;;;;;;;0.00;0.00;;;13.70;99.90;;;;;;5068452;28;20033;-86
2022/10/21 04:45:48;;;;;;;0.00;0.00;;;13.20;99.90;;;;;;5069887;28;20052;-84
2022/10/21 04:48:15;;;;;;;0.00;0.00;;;13.30;99.90;;;;;;5069130;28;20037;-85
2022/10/21 04:50:43;;;;;;;0.00;0.00;;;13.30;99.90;;;;;;5070921;28;20032;-87
2022/10/21 04:53:10;;;;;;;0.00;0.00;;;13.30;99.90;;;;;;5067039;28;20049;-85
2022/10/21 04:55:38;;;;;;;0.00;0.00;;;14.20;99.90;;;;;;5068069;28;20028;-84
2022/10/21 04:58:05;;;;;;;0.03;0.03;;;;;;;;;;5073365;28;20074;-83
2022/10/21 05:00:32;;;;;;;0.00;0.00;;;;;;;;;;5070965;28;20051;-86
2022/10/21 05:02:59;;;;;;;0.00;0.00;;;;;;;;;;5070857;28;20048;-85
2022/10/21 05:05:26;;;;;;;0.00;0.00;;;13.40;99.90;;;;;;5070134;28;20024;-85
2022/10/21 05:07:55;;;;;;;0.00;0.00;;;13.30;99.90;;;;;;5071010;28;20024;-85
2022/10/21 05:10:23;;;;;;;0.00;0.00;;;;;;;;;;5071222;28;20017;-85
2022/10/21 05:12:50;;;;;;;0.00;0.00;;;13.30;99.90;;;;;;5068517;28;20071;-85
2022/10/21 05:15:17;;;;;;;0.00;0.00;;;13.30;99.90;;;;;;5069476;28;20033;-84
2022/10/21 05:17:43;;;;;;;0.00;0.00;;;13.30;99.90;;;;;;5070771;28;20017;-84
2022/10/21 05:20:11;;;;;;;0.00;0.00;;;13.30;99.90;;;;;;5074479;28;20411;-86
2022/10/21 05:22:37;;;;;;;0.00;0.00;;;13.30;99.90;;;;;;5070526;28;20033;-83
2022/10/21 05:25:07;;;;;;;0.00;0.00;;;13.30;99.90;;;;;;5071059;28;20041;-85
2022/10/21 05:27:34;;;;;;;0.00;0.00;;;13.20;99.90;;;;;;5069586;28;20051;-83
2022/10/21 05:30:03;;;;;;;0.00;0.00;;;;;;;;;;5070089;28;20068;-85
2022/10/21 05:32:30;;;;;;;0.00;0.00;;;;;;;;;;5071901;28;20048;-87
2022/10/21 05:34:57;;;;;;;0.00;0.00;;;;;;;;;;5071896;28;20021;-85
2022/10/21 05:37:24;;;;;;;0.00;0.00;;;;;;;;;;5073886;28;20056;-84
2022/10/21 05:39:51;;;;;;;0.00;0.00;;;;;;;;;;5069929;28;20056;-84
2022/10/21 05:42:20;;;;;;;0.00;0.00;;;13.10;99.90;;;;;;5070909;28;20067;-85
2022/10/21 05:44:47;;;;;;;0.00;0.00;;;;;;;;;;5071815;28;20041;-86
2022/10/21 05:47:14;;;;;;;0.00;0.00;;;;;;;;;;5071684;28;20045;-85
2022/10/21 05:49:41;;;;;;;0.00;0.00;;;;;;;;;;5071408;28;20033;-86
2022/10/21 05:52:08;;;;;;;0.00;0.00;;;13.00;99.90;;;;;;5070693;28;20044;-85
2022/10/21 05:54:35;;;;;;;0.00;0.00;;;13.90;99.90;;;;;;5069807;28;20047;-84
2022/10/21 05:57:02;;;;;;;0.00;0.00;;;13.20;99.90;;;;;;5068251;28;20048;-85
2022/10/21 05:59:30;;;;;;;0.00;0.00;;;13.00;99.90;;;;;;5068065;28;20048;-84
2022/10/21 06:01:57;;;;;;;0.00;0.00;;;;;;;;;;5067955;28;20025;-85
2022/10/21 06:04:24;;;;;;;0.00;0.00;;;13.00;99.90;;;;;;5066205;28;20057;-83
2022/10/21 06:06:51;;;;;;;0.00;0.00;;;13.00;99.90;;;;;;5070959;28;20044;-86
2022/10/21 06:09:18;;;;;;;0.00;0.00;;;12.90;99.90;;;;;;5072207;28;20021;-85
2022/10/21 06:11:45;;;;;;;0.00;0.00;;;;;;;;;;5069217;28;20089;-85
2022/10/21 06:14:12;;;;;;;0.00;0.00;;;12.90;99.90;;;;;;5073158;28;20021;-85
2022/10/21 06:16:40;;;;;;;0.00;0.00;;;13.20;99.90;;;;;;5070290;28;20044;-86
2022/10/21 06:19:07;;;;;;;0.00;0.00;;;12.80;99.90;;;;;;5066441;28;20025;-86
2022/10/21 06:21:34;;;;;;;0.00;0.00;;;;;;;;;;5070782;28;20033;-86
2022/10/21 06:24:01;;;;;;;0.00;0.00;;;12.70;99.90;;;;;;5090756;28;20064;-84
2022/10/21 06:26:28;;;;;;;0.00;0.00;;;12.80;99.90;;;;;;5076953;28;20033;-85
2022/10/21 06:28:59;;;;;;;0.00;0.00;;;;;;;;;;5071689;28;20051;-85
2022/10/21 06:31:26;;;;;;;0.00;0.00;;;;;;;;;;5077323;28;20047;-85
2022/10/21 06:33:54;;;;;;;0.00;0.00;;;12.80;99.90;;;;;;5076459;28;20067;-85
2022/10/21 06:36:22;;;;;;;0.00;0.00;;;;;;;;;;5077159;28;20029;-85
2022/10/21 06:38:48;;;;;;;0.00;0.00;;;12.80;99.90;;;;;;5074420;28;20045;-85
2022/10/21 06:41:17;;;;;;;0.00;0.00;;;;;;;;;;5072873;28;20032;-85
2022/10/21 06:43:44;;;;;;;0.00;0.00;;;;;;;;;;5071603;28;20061;-86
2022/10/21 06:46:13;;;;;;;0.00;0.00;;;12.90;99.90;;;;;;5069407;28;20021;-85
2022/10/21 06:48:40;;;;;;;0.00;0.00;;;;;;;;;;5075073;28;20708;-86
2022/10/21 06:51:11;;;;;;;0.00;0.00;;;13.00;99.90;;;;;;5093985;28;20021;-84
2022/10/21 06:53:38;;;;;;;0.00;0.00;;;13.10;99.90;;;;;;5077245;28;20029;-85
2022/10/21 06:56:08;;;;;;;0.00;0.00;;;13.00;99.90;;;;;;5074479;28;20037;-85
2022/10/21 06:58:36;;;;;;;0.00;0.00;;;13.00;99.90;;;;;;5075276;28;20020;-85
2022/10/21 07:01:08;;;;;;;0.00;0.00;;;13.00;99.90;;;;;;5074074;28;20032;-85
2022/10/21 07:03:54;;;;;;;0.00;0.00;;;;;;;;;;5072599;28;21273;-85
2022/10/21 07:06:22;;;;;;;0.00;0.00;;;13.00;99.90;;;;;;5074999;28;20033;-85
2022/10/21 07:08:49;;;;;;;0.00;0.00;;;;;;;;;;5073164;28;20025;-86
2022/10/21 07:11:25;;;;;;;0.00;0.00;;;;;;;;;;5071010;28;20025;-85
2022/10/21 07:13:52;;;;;;;0.00;0.00;;;;;;;;;;5075407;28;20061;-84
2022/10/21 07:16:22;;;;;;;0.00;0.00;;;13.00;99.90;;;;;;5074074;28;20060;-86
2022/10/21 07:18:49;;;;;;;0.00;0.00;;;;;;;;;;5069045;28;20321;-87
2022/10/21 07:21:18;;;;;;;0.00;0.00;;;13.00;99.90;;;;;;5094760;28;20041;-86
2022/10/21 07:23:50;;;;;;;0.00;0.00;;;13.50;99.90;;;;;;5072685;28;20024;-84
2022/10/21 07:26:18;;;;;;;0.00;0.00;;;13.20;99.90;;;;;;5073191;28;20037;-86
2022/10/21 07:28:46;;;;;;;0.00;0.00;;;;;;;;;;5073310;28;20056;-85
2022/10/21 07:31:13;;;;;;;0.00;0.00;;;13.10;99.90;;;;;;5074324;28;20041;-86
2022/10/21 07:33:41;;;;;;;0.00;0.00;;;;;;;;;;5074759;28;20049;-85
2022/10/21 07:36:10;;;;;;;0.00;0.00;;;13.20;99.90;;;;;;5076280;28;20048;-86
2022/10/21 07:38:37;;;;;;;0.00;0.00;;;;;;;;;;5070310;28;20044;-84
2022/10/21 07:41:05;;;;;;;0.00;0.00;;;13.30;99.90;;;;;;5076659;28;20021;-85
2022/10/21 07:43:33;;;;;;;0.00;0.00;;;;;;;;;;5075165;28;20041;-85
2022/10/21 07:46:00;;;;;;;0.00;0.00;;;;;;;;;;5075553;28;20060;-84
2022/10/21 07:48:32;;;;;;;0.00;0.00;;;;;;;;;;5070496;28;20017;-85
2022/10/21 07:51:02;;;;;;;0.00;0.00;;;13.50;99.90;;;;;;5071269;28;20025;-84
2022/10/21 07:53:30;;;;;;;0.00;0.00;;;;;;;;;;5073022;28;20064;-85
2022/10/21 07:56:01;;;;;;;0.00;0.00;;;13.50;99.90;;;;;;5070105;28;20017;-84
2022/10/21 07:58:30;;;;;;;0.00;0.00;;;13.60;99.90;;;;;;5069517;28;20068;-85
2022/10/21 08:00:58;;;;;;;0.00;0.00;;;14.60;99.90;;;;;;5071757;28;20045;-84
2022/10/21 08:03:25;;;;;;;0.00;0.00;;;;;;;;;;5074368;28;20053;-86
2022/10/21 08:05:53;;;;;;;0.00;0.00;;;13.90;99.90;;;;;;5070197;28;20072;-86
2022/10/21 08:08:20;;;;;;;0.00;0.00;;;;;;;;;;5071542;28;20055;-83
2022/10/21 08:10:48;;;;;;;0.00;0.00;;;13.90;99.90;;;;;;5070754;28;20045;-84
2022/10/21 08:13:16;;;;;;;0.00;0.00;;;;;;;;;;5071390;28;20033;-84
2022/10/21 08:15:46;;;;;;;0.00;0.00;;;14.10;99.90;;;;;;5071058;28;20033;-85
2022/10/21 08:18:13;;;;;;;;;;;14.70;99.90;;;;;;5120068;22;20040;-85
2022/10/21 08:20:42;;;;;;;0.00;0.00;;;14.30;99.90;;;;;;5090344;28;19924;-86
2022/10/21 08:23:09;;;;;;;0.00;0.00;;;14.40;99.90;;;;;;5087137;28;20067;-86
2022/10/21 08:25:36;;;;;;;0.00;0.00;;;14.50;99.90;;;;;;5106477;28;20074;-86
2022/10/21 08:28:05;;;;;;;0.10;0.10;;;14.70;99.90;;;;;;5084231;28;20078;-86
2022/10/21 08:30:32;;;;;;;0.00;0.00;;;15.40;99.90;;;;;;5092253;28;20040;-85
2022/10/21 08:33:00;;;;;;;0.00;0.00;;;14.80;99.90;;;;;;5091152;28;20051;-86
2022/10/21 08:35:28;;;;;;;0.00;0.00;;;14.80;99.90;;;;;;5107913;27;20044;-86
2022/10/21 08:37:55;;;;;;;0.00;0.00;;;14.90;99.90;;;;;;5089594;28;20054;-86
2022/10/21 08:40:22;;;;;;;0.00;0.00;;;14.90;99.90;;;;;;5086801;28;20495;-86
2022/10/21 08:42:50;;;;;;;0.00;0.00;;;15.00;99.90;;;;;;5085207;28;20048;-86
2022/10/21 08:45:27;;;;;;;0.00;0.00;;;15.10;99.90;;;;;;5100042;28;20031;-85
2022/10/21 08:47:58;;;;;;;0.00;0.00;;;15.30;99.90;;;;;;5091174;28;20137;-86
2022/10/21 08:50:32;;;;;;;0.00;0.00;;;15.30;99.90;;;;;;5087486;28;20131;-86
2022/10/21 08:53:05;;;;;;;0.00;0.00;;;15.40;99.90;;;;;;5087978;28;20036;-85
2022/10/21 08:55:34;;;;;;;0.00;0.00;;;15.50;99.90;;;;;;5088464;28;20492;-85
2022/10/21 08:58:03;;;;;;;0.00;0.00;;;15.60;99.90;;;;;;5092540;28;20044;-85
2022/10/21 09:00:34;;;;;;;0.10;0.10;;;15.70;99.90;;;;;;5085510;28;20072;-85
2022/10/21 09:03:10;;;;;;;0.00;0.00;;;17.00;99.90;;;;;;5081737;28;20059;-86
2022/10/21 09:05:55;;;;;;;0.00;0.00;;;15.70;99.90;;;;;;5089151;28;20032;-86
2022/10/21 09:08:29;;;;;;;0.00;0.00;;;15.80;99.90;;;;;;5088088;28;20101;-86
2022/10/21 09:11:01;;;;;;;0.00;0.00;;;15.60;99.90;;;;;;5086961;28;20451;-86
2022/10/21 09:13:48;;;;;;;0.00;0.00;;;15.80;99.90;;;;;;5088095;28;20109;-86
2022/10/21 09:16:19;;;;;;;0.00;0.00;;;15.80;99.90;;;;;;5082199;28;20036;-86
2022/10/21 09:18:58;;;;;;;0.00;0.00;;;15.90;99.90;;;;;;5085691;28;20048;-86
2022/10/21 09:21:35;;;;;;;0.00;0.00;;;16.00;99.90;;;;;;5084858;28;20419;-84
2022/10/21 09:24:06;;;;;;;0.00;0.00;;;16.10;99.90;;;;;;5091941;28;20052;-85
2022/10/21 09:26:37;;;;;;;0.00;0.00;;;16.20;99.90;;;;;;5087704;28;20048;-85
2022/10/21 09:29:19;;;;;;;0.00;0.00;;;16.30;99.90;;;;;;5087103;28;20046;-85
2022/10/21 09:31:47;;;;;;;0.00;0.00;;;16.40;99.90;;;;;;5084260;28;20047;-85
2022/10/21 09:34:37;;;;;;;0.00;0.00;;;16.60;99.90;;;;;;5085506;28;20476;-85
2022/10/21 09:37:15;;;;;;;0.00;0.00;;;16.50;99.90;;;;;;5083798;28;20039;-83
2022/10/21 09:39:45;;;;;;;0.00;0.00;;;16.60;99.90;;;;;;5088055;28;20060;-85
2022/10/21 09:42:12;;;;;;;0.00;0.00;;;16.80;99.90;;;;;;5088190;28;20087;-85
2022/10/21 09:44:59;;;;;;;0.00;0.00;;;18.20;99.90;;;;;;5084337;28;20055;-85
2022/10/21 09:47:26;;;;;;;0.00;0.00;;;16.90;99.90;;;;;;5087397;28;20510;-84
2022/10/21 09:49:56;;;;;;;0.00;0.00;;;17.00;99.90;;;;;;5087320;28;20059;-85
2022/10/21 09:52:51;;;;;;;0.00;0.00;;;17.90;99.90;;;;;;5087535;28;20500;-85
2022/10/21 09:55:19;;;;;;;0.00;0.00;;;17.20;99.90;;;;;;5087294;28;20066;-86
2022/10/21 09:57:52;;;;;;;0.00;0.00;;;17.30;99.90;;;;;;5087859;28;20042;-85
2022/10/21 10:00:19;;;;;;;0.00;0.00;;;17.30;99.90;;;;;;5087282;28;20045;-87
2022/10/21 10:02:47;;;;;;;0.00;0.00;;;17.40;99.90;;;;;;5089039;28;20036;-86
2022/10/21 10:05:35;;;;;;;0.00;0.00;;;17.40;99.90;;;;;;5087086;28;20396;-85
2022/10/21 10:08:25;;;;;;;0.00;0.00;;;17.40;99.90;;;;;;5086711;28;20087;-85
2022/10/21 10:11:01;;;;;;;0.00;0.00;;;17.50;99.90;;;;;;5084912;28;20044;-86
2022/10/21 10:13:30;;;;;;;0.00;0.00;;;17.50;99.90;;;;;;5089822;28;20131;-85
2022/10/21 10:16:13;;;;;;;0.00;0.00;;;17.50;99.90;;;;;;5104161;28;20141;-85
2022/10/21 10:18:41;;;;;;;0.00;0.00;;;17.60;99.90;;;;;;5087796;28;20048;-86
2022/10/21 10:21:10;;;;;;;0.00;0.00;;;17.60;99.90;;;;;;5085033;28;20139;-85
2022/10/21 10:23:46;;;;;;;;;;;17.60;99.90;;;;;;5088635;28;20098;-85
2022/10/21 10:26:19;;;;;;;0.00;0.00;;;17.50;99.90;;;;;;5102722;28;19927;-85
2022/10/21 10:28:55;;;;;;;0.00;0.00;;;17.60;99.90;;;;;;5084817;28;20059;-86
2022/10/21 10:31:26;;;;;;;0.00;0.00;;;17.70;99.90;;;;;;5088341;28;20514;-85
2022/10/21 10:33:55;;;;;;;0.00;0.00;;;17.80;99.90;;;;;;5087566;28;20040;-84
2022/10/21 10:36:28;;;;;;;0.00;0.00;;;18.00;99.90;;;;;;5088494;28;20036;-84
2022/10/21 10:38:58;;;;;;;0.00;0.00;;;17.70;99.90;;;;;;5090233;28;20046;-84
2022/10/21 10:41:34;;;;;;;0.00;0.00;;;17.70;99.90;;;;;;5085524;28;20040;-85
2022/10/21 10:44:07;;;;;;;0.00;0.00;;;17.60;99.90;;;;;;5086265;28;20032;-85
2022/10/21 10:46:35;;;;;;;0.00;0.00;;;17.60;99.90;;;;;;5087633;28;20040;-84
2022/10/21 10:49:16;;;;;;;0.00;0.00;;;17.70;99.90;;;;;;5076524;28;20055;-84
2022/10/21 10:51:46;;;;;;;0.00;0.00;;;17.60;99.90;;;;;;5086499;28;20051;-85
2022/10/21 10:54:20;;;;;;;0.00;0.00;;;17.60;99.90;;;;;;5085862;28;20066;-85
2022/10/21 10:56:52;;;;;;;0.00;0.00;;;17.60;99.90;;;;;;5089161;28;20036;-84
2022/10/21 10:59:31;;;;;;;0.00;0.00;;;17.50;99.90;;;;;;5079810;28;20077;-85
2022/10/21 11:02:13;;;;;;;0.00;0.00;;;17.50;99.90;;;;;;5085801;28;20044;-85
2022/10/21 11:04:45;;;;;;;0.00;0.00;;;17.60;99.90;;;;;;5084359;28;20075;-84
2022/10/21 11:07:18;;;;;;;0.00;0.00;;;18.50;99.90;;;;;;5090197;28;20067;-85
2022/10/21 11:09:50;;;;;;;0.00;0.00;;;17.80;99.90;;;;;;5084029;28;20052;-85
2022/10/21 11:12:22;;;;;;;0.00;0.00;;;17.80;99.90;;;;;;5088198;28;20044;-85
2022/10/21 11:14:52;;;;;;;0.00;0.00;;;17.90;99.90;;;;;;5094336;28;20042;-86
2022/10/21 11:17:21;;;;;;;0.00;0.00;;;18.10;99.90;;;;;;5091764;28;20050;-86
2022/10/21 11:19:54;;;;;;;0.00;0.00;;;18.00;99.90;;;;;;5087775;28;20122;-85
2022/10/21 11:22:33;;;;;;;0.00;0.00;;;18.00;99.90;;;;;;5088239;28;20044;-85
2022/10/21 11:25:11;;;;;;;0.00;0.00;;;18.00;99.90;;;;;;5090655;28;20036;-85
2022/10/21 11:28:01;;;;;;;0.00;0.00;;;17.90;99.90;;;;;;5093342;28;20048;-85
2022/10/21 11:30:38;;;;;;;0.00;0.00;;;17.80;99.90;;;;;;5106866;28;20054;-85
2022/10/21 11:33:14;;;;;;;0.00;0.00;;;18.50;99.90;;;;;;5089518;28;20044;-86
2022/10/21 11:35:50;;;;;;;0.00;0.00;;;17.50;99.90;;;;;;5092881;28;20127;-85
2022/10/21 11:38:32;;;;;;;0.00;0.00;;;17.60;99.90;;;;;;5088315;28;20044;-86
2022/10/21 11:41:08;;;;;;;0.00;0.00;;;17.50;99.90;;;;;;5091228;28;20046;-85
2022/10/21 11:43:46;;;;;;;0.00;0.00;;;17.60;99.90;;;;;;5088419;28;20044;-85
2022/10/21 11:46:19;;;;;;;0.00;0.00;;;17.50;99.90;;;;;;5094818;28;20063;-85
2022/10/21 11:49:02;;;;;;;0.00;0.00;;;17.40;99.90;;;;;;5088558;28;20058;-86
2022/10/21 11:51:38;;;;;;;0.00;0.00;;;17.40;99.90;;;;;;5085429;28;20052;-84
2022/10/21 11:54:40;;;;;;;0.00;0.00;;;17.40;99.90;;;;;;5084822;28;20036;-85
2022/10/21 11:57:36;;;;;;;0.00;0.00;;;17.50;99.90;;;;;;5089832;28;20055;-85
2022/10/21 12:00:11;;;;;;;0.00;0.00;;;17.40;99.90;;;;;;5088012;28;20081;-85
2022/10/21 12:02:44;;;;;;;0.00;0.00;;;17.40;99.90;;;;;;5091591;28;20094;-85
2022/10/21 12:05:24;;;;;;;0.00;0.00;;;17.30;99.90;;;;;;5085936;28;20036;-85
2022/10/21 12:08:18;;;;;;;0.00;0.00;;;17.30;99.90;;;;;;5088845;28;20051;-86
2022/10/21 12:10:51;;;;;;;0.00;0.00;;;17.30;99.90;;;;;;5071036;28;20056;-86
2022/10/21 12:13:25;;;;;;;0.00;0.00;;;17.30;99.90;;;;;;5089024;28;20518;-85
2022/10/21 12:15:55;;;;;;;0.00;0.00;;;17.20;99.90;;;;;;5085888;28;20050;-85
2022/10/21 12:18:25;;;;;;;0.00;0.00;;;17.20;99.90;;;;;;5090233;28;20036;-85
2022/10/21 12:20:53;;;;;;;0.00;0.00;;;17.30;99.90;;;;;;5085190;28;20046;-85
2022/10/21 12:23:23;;;;;;;0.00;0.00;;;17.20;99.90;;;;;;5090922;28;20052;-86
2022/10/21 12:26:01;;;;;;;;;;;17.20;99.90;;;;;;5091890;28;20415;-85
2022/10/21 12:28:35;;;;;;;0.00;0.00;;;17.20;99.90;;;;;;5086015;28;20015;-84
2022/10/21 12:31:22;;;;;;;0.00;0.00;;;17.10;99.90;;;;;;5084074;28;20044;-86
2022/10/21 12:33:49;;;;;;;0.00;0.00;;;17.10;99.90;;;;;;5088523;28;20032;-86
2022/10/21 12:36:37;;;;;;;0.00;0.00;;;17.10;99.90;;;;;;5086922;28;20044;-85
2022/10/21 12:39:04;;;;;;;0.00;0.00;;;17.00;99.90;;;;;;5085200;28;20055;-86
2022/10/21 12:41:34;;;;;;;0.00;0.00;;;17.00;99.90;;;;;;5089796;28;20556;-85
2022/10/21 12:44:14;;;;;;;0.00;0.00;;;16.90;99.90;;;;;;5086954;28;20407;-86
2022/10/21 12:46:42;;;;;;;;;;;17.00;99.90;;;;;;5088728;28;20419;-86
2022/10/21 12:49:20;;;;;;;0.00;0.00;;;17.10;99.90;;;;;;5086477;28;20011;-86
2022/10/21 12:51:50;;;;;;;0.00;0.00;;;17.10;99.90;;;;;;5089016;28;20588;-87
2022/10/21 12:54:20;;;;;;;0.00;0.00;;;17.00;99.90;;;;;;5090887;28;20040;-85
2022/10/21 12:57:00;;;;;;;0.00;0.00;;;17.00;99.90;;;;;;5087481;28;20044;-85
2022/10/21 12:59:34;;;;;;;0.00;0.00;;;17.00;99.90;;;;;;5089803;28;20036;-85
2022/10/21 13:02:28;;;;;;;0.00;0.00;;;17.00;99.90;;;;;;5088578;28;20147;-86
2022/10/21 13:04:57;;;;;;;0.00;0.00;;;17.00;99.90;;;;;;5075707;28;20058;-86
2022/10/21 13:07:32;;;;;;;0.00;0.00;;;17.10;99.90;;;;;;5085152;28;20044;-85
2022/10/21 13:10:24;;;;;;;0.00;0.00;;;17.10;99.90;;;;;;5086629;28;20389;-86
2022/10/21 13:13:29;;;;;;;0.00;0.00;;;17.10;99.90;;;;;;5062091;28;20075;-86
2022/10/21 13:15:58;;;;;;;0.00;0.00;;;17.20;99.90;;;;;;5087669;28;20046;-86
2022/10/21 13:18:51;;;;;;;0.00;0.00;;;17.10;99.90;;;;;;5085862;28;20054;-85
2022/10/21 13:21:38;;;;;;;0.00;0.00;;;17.00;99.90;;;;;;5090174;28;20044;-85
2022/10/21 13:24:25;;;;;;;0.00;0.00;;;17.10;99.90;;;;;;5087906;28;20054;-86
2022/10/21 13:26:54;;;;;;;0.00;0.00;;;17.00;99.90;;;;;;5084162;28;20149;-86